Aérodrome :
LOGIN :

S'inscrire | Disclaimer

   EN    FR    IT 

 










Légende :    VFR   VFR Marginal   IFR   IFR Intensif   IFR Très Intensif
Visi : 
Plafond : 
>= 8 km
>= 3000ft
5 à 8 km
1000 à 3000 ft
1500m à 5 km
500 à 1000 ft
800 à 1500m
200 à 500 ft
< 800m
< 200 ft
Symboles :   Orages  Brouillard  Fortes neiges  Fortes précipitations  Vent > 20 kt
SIGMETs :   Divers  Orages  Givrage  Turbulence  Onde Orograph.  Cendres Volcan.







- Altitude de l'aérodrome : 289 ft
- Code IATA : ZAD


LDZD - Zadar

DERNIER METAR :
  • 261830Z 03005KT 350V060 CAVOK 20/08 Q1016 BECMG 04006KT

METARs EXPIRÉS :
  • 261800Z 03004KT 340V080 CAVOK 22/07 Q1016 BECMG 04006KT
  • 261730Z 03004KT 350V060 9999 FEW050 24/08 Q1016 BECMG 04006KT
  • 261700Z 02004KT 330V060 9999 FEW050 25/06 Q1016 TEMPO 32008KT
  • 261630Z 35006KT 290V060 9999 FEW050 24/07 Q1016 TEMPO 32008KT
  • 261600Z 02005KT 330V090 9999 FEW050 25/07 Q1016 TEMPO 32008KT

TAF TAF LDZD
Valide du 26 à 18h jusqu'au 27 à 18h UTC


261725Z 2618/2718 04006KT CAVOK TX27/2713Z TN12/2804Z
TEMPO 2712/2717 04012KT
Pas de NOTAMs connus pour ce terrain.



MET'MAP, la Météo Aéronautique d'un coup d'oeil ! - Copyright ORBIFLY Décembre 2007 - Disclaimer

ORBIFLY MET'MAP TEAM :

Programmation & Développement : Alexandra Zaïnal
Conception & Développement : Baudouin d'Aumeries
Co-Programmation & Développement : Marc-Olivier Méhu
Soutien technique & logistique : Manuel Goepfert

Contact : metmap@orbifly.com




SOURCES & CREDITS :

   NOAA